Time;durP1;ratioP1;P1;durP2;ratioP2;P2;SDS_P1;SDS_P2;PMS_P1;PMS_P2;Temp;Humidity;BMP_temperature;BMP_pressure;BME280_temperature;BME280_humidity;BME280_pressure;Samples;Min_cycle;Max_cycle;Signal;HPM_P1;HPM_P2
2021/10/25 00:00:20;;;;;;;9.03;4.87;;;;;;;;;;4993000;28;20407;-52
2021/10/25 00:02:46;;;;;;;4.93;4.53;;;;;;;;;;4992619;28;20425;-50
2021/10/25 00:05:12;;;;;;;8.40;4.03;;;;;;;;;;4992828;28;20444;-49
2021/10/25 00:07:38;;;;;;;6.57;5.03;;;;;;;;;;4992830;28;20883;-50
2021/10/25 00:10:05;;;;;;;5.23;4.67;;;;;;;;;;4992824;28;20417;-51
2021/10/25 00:12:32;;;;;;;6.77;4.40;;;;;;;;;;4992498;28;20429;-50
2021/10/25 00:14:58;;;;;;;5.67;4.50;;;;;;;;;;4992675;28;20411;-49
2021/10/25 00:17:24;;;;;;;6.03;4.10;;;;;;;;;;4992574;28;20429;-49
2021/10/25 00:19:50;;;;;;;7.13;4.23;;;;;;;;;;4992668;28;20793;-50
2021/10/25 00:22:16;;;;;;;6.03;4.43;;;;;;;;;;4992216;28;20797;-51
2021/10/25 00:24:42;;;;;;;5.20;4.70;;;;;;;;;;4992724;28;20400;-50
2021/10/25 00:27:08;;;;;;;5.83;4.20;;;;;;;;;;4992582;28;20949;-52
2021/10/25 00:29:34;;;;;;;4.90;4.50;;;;;;;;;;4992646;28;20445;-51
2021/10/25 00:32:00;;;;;;;4.63;4.17;;;;;;;;;;4992147;28;20428;-51
2021/10/25 00:34:26;;;;;;;8.83;4.90;;;;;;;;;;4992575;28;20436;-51
2021/10/25 00:36:52;;;;;;;8.13;4.90;;;;;;;;;;4992393;28;20456;-50
2021/10/25 00:39:18;;;;;;;11.07;4.50;;;;;;;;;;4992149;28;20402;-50
2021/10/25 00:41:44;;;;;;;5.13;4.40;;;;;;;;;;4992460;28;20453;-48
2021/10/25 00:44:10;;;;;;;4.77;4.27;;;;;;;;;;4992491;28;20436;-50
2021/10/25 00:46:36;;;;;;;5.67;4.40;;;;;;;;;;4992238;28;20414;-50
2021/10/25 00:49:03;;;;;;;5.53;4.60;;;;;;;;;;4992476;28;20406;-50
2021/10/25 00:51:29;;;;;;;6.20;4.43;;;;;;;;;;4992378;28;20918;-51
2021/10/25 00:53:55;;;;;;;6.87;5.10;;;;;;;;;;4992112;28;20474;-51
2021/10/25 00:56:21;;;;;;;5.70;5.13;;;;;;;;;;4992341;28;20466;-50
2021/10/25 00:58:47;;;;;;;7.43;4.33;;;;;;;;;;4992311;28;20407;-49
2021/10/25 01:01:13;;;;;;;6.03;4.60;;;;;;;;;;4991840;28;20418;-50
2021/10/25 01:03:40;;;;;;;4.63;4.03;;;;;;;;;;4991435;28;20424;-51
2021/10/25 01:06:07;;;;;;;6.57;5.00;;;;;;;;;;4991925;28;20855;-50
2021/10/25 01:08:35;;;;;;;9.00;4.63;;;;;;;;;;4992165;28;21029;-51
2021/10/25 01:11:01;;;;;;;7.50;4.53;;;;;;;;;;4992235;28;20409;-50
2021/10/25 01:13:27;;;;;;;6.30;4.73;;;;;;;;;;4991807;28;20430;-50
2021/10/25 01:15:54;;;;;;;6.03;4.30;;;;;;;;;;4991924;28;20450;-51
2021/10/25 01:18:20;;;;;;;5.50;4.77;;;;;;;;;;4992056;28;20415;-50
2021/10/25 01:20:45;;;;;;;5.60;4.53;;;;;;;;;;4992182;28;20484;-50
2021/10/25 01:23:11;;;;;;;5.90;5.30;;;;;;;;;;4991706;28;20853;-50
2021/10/25 01:25:37;;;;;;;7.70;4.77;;;;;;;;;;4992052;28;20414;-51
2021/10/25 01:28:04;;;;;;;5.57;4.60;;;;;;;;;;4992025;28;20410;-50
2021/10/25 01:30:30;;;;;;;5.90;5.00;;;;;;;;;;4991931;28;20874;-50
2021/10/25 01:32:56;;;;;;;7.10;4.53;;;;;;;;;;4991741;28;20434;-49
2021/10/25 01:35:22;;;;;;;6.00;4.47;;;;;;;;;;4992231;28;20441;-49
2021/10/25 01:37:49;;;;;;;5.03;4.57;;;;;;;;;;4991972;28;20450;-50
2021/10/25 01:40:15;;;;;;;8.70;4.63;;;;;;;;;;4992346;28;20439;-50
2021/10/25 01:42:41;;;;;;;9.20;4.63;;;;;;;;;;4991678;28;20426;-51
2021/10/25 01:45:08;;;;;;;7.17;5.10;;;;;;;;;;4991749;28;20462;-51
2021/10/25 01:47:34;;;;;;;5.90;5.30;;;;;;;;;;4991832;28;20409;-49
2021/10/25 01:50:00;;;;;;;4.27;3.87;;;;;;;;;;4992268;28;20402;-50
2021/10/25 01:52:26;;;;;;;9.30;5.13;;;;;;;;;;4993962;28;20426;-50
2021/10/25 01:54:52;;;;;;;5.43;4.60;;;;;;;;;;4995345;28;20402;-50
2021/10/25 01:57:18;;;;;;;5.80;5.13;;;;;;;;;;4995048;28;20513;-49
2021/10/25 01:59:44;;;;;;;6.10;4.87;;;;;;;;;;4995116;28;20404;-49
2021/10/25 02:02:11;;;;;;;7.37;4.57;;;;;;;;;;4994868;28;20441;-51
2021/10/25 02:04:37;;;;;;;5.67;4.40;;;;;;;;;;4995095;28;20464;-49
2021/10/25 02:07:03;;;;;;;6.77;5.23;;;;;;;;;;4995052;28;20469;-50
2021/10/25 02:09:29;;;;;;;6.23;4.80;;;;;;;;;;4995294;28;20765;-50
2021/10/25 02:11:56;;;;;;;4.93;4.47;;;;;;;;;;4994598;28;20432;-50
2021/10/25 02:14:22;;;;;;;6.67;5.40;;;;;;;;;;4994872;28;20441;-50
2021/10/25 02:16:48;;;;;;;7.53;4.93;;;;;;;;;;4994796;28;20893;-49
2021/10/25 02:19:14;;;;;;;7.33;4.70;;;;;;;;;;4994843;28;20470;-50
2021/10/25 02:21:42;;;;;;;8.20;5.47;;;;;;;;;;4994623;28;20401;-50
2021/10/25 02:24:08;;;;;;;6.20;4.43;;;;;;;;;;4994611;28;20434;-51
2021/10/25 02:26:34;;;;;;;7.00;5.57;;;;;;;;;;4994571;28;20400;-49
2021/10/25 02:29:00;;;;;;;8.33;5.30;;;;;;;;;;4994597;28;20411;-51
2021/10/25 02:31:27;;;;;;;6.03;4.90;;;;;;;;;;4994627;28;20793;-51
2021/10/25 02:33:53;;;;;;;4.50;4.20;;;;;;;;;;4994326;28;20929;-50
2021/10/25 02:36:19;;;;;;;14.33;5.10;;;;;;;;;;4994411;28;20456;-49
2021/10/25 02:38:45;;;;;;;5.50;4.80;;;;;;;;;;4994497;28;20401;-51
2021/10/25 02:41:11;;;;;;;11.13;5.00;;;;;;;;;;4994422;28;20409;-51
2021/10/25 02:43:37;;;;;;;7.23;4.70;;;;;;;;;;4994129;28;20450;-51
2021/10/25 02:46:04;;;;;;;5.83;5.27;;;;;;;;;;4994363;28;20413;-49
2021/10/25 02:48:30;;;;;;;8.10;5.83;;;;;;;;;;4994284;28;20882;-50
2021/10/25 02:50:56;;;;;;;5.73;4.57;;;;;;;;;;4994328;28;20417;-50
2021/10/25 02:53:23;;;;;;;7.10;5.10;;;;;;;;;;4993914;28;20427;-50
2021/10/25 02:55:49;;;;;;;7.17;5.47;;;;;;;;;;4994022;28;20992;-50
2021/10/25 02:58:16;;;;;;;4.83;4.33;;;;;;;;;;4994027;28;20434;-49
2021/10/25 03:00:42;;;;;;;6.33;5.13;;;;;;;;;;4994110;28;20398;-50
2021/10/25 03:03:08;;;;;;;5.63;5.10;;;;;;;;;;4993513;28;20973;-51
2021/10/25 03:05:34;;;;;;;5.40;4.40;;;;;;;;;;4994006;28;20402;-50
2021/10/25 03:08:00;;;;;;;5.30;4.50;;;;;;;;;;4993787;28;20411;-51
2021/10/25 03:10:27;;;;;;;6.17;5.40;;;;;;;;;;4994302;28;20415;-50
2021/10/25 03:12:53;;;;;;;7.90;5.27;;;;;;;;;;4993883;28;20775;-51
2021/10/25 03:15:19;;;;;;;5.30;4.90;;;;;;;;;;4993727;28;20405;-50
2021/10/25 03:17:45;;;;;;;5.30;4.80;;;;;;;;;;4993790;28;20410;-49
2021/10/25 03:20:12;;;;;;;5.37;4.53;;;;;;;;;;4993748;28;20901;-50
2021/10/25 03:22:39;;;;;;;6.90;4.63;;;;;;;;;;4993334;28;20445;-51
2021/10/25 03:25:05;;;;;;;7.93;5.60;;;;;;;;;;4993575;28;20402;-50
2021/10/25 03:27:31;;;;;;;5.67;4.60;;;;;;;;;;4993548;28;20429;-50
2021/10/25 03:29:57;;;;;;;6.20;4.37;;;;;;;;;;4993552;28;20963;-49
2021/10/25 03:32:23;;;;;;;5.30;4.60;;;;;;;;;;4993436;28;20418;-50
2021/10/25 03:34:50;;;;;;;6.07;5.07;;;;;;;;;;4993452;28;20414;-50
2021/10/25 03:37:17;;;;;;;6.20;4.90;;;;;;;;;;4993275;28;20506;-50
2021/10/25 03:39:46;;;;;;;6.40;5.00;;;;;;;;;;4993262;28;20443;-50
2021/10/25 03:42:48;;;;;;;7.20;5.50;;;;;;;;;;4992981;28;20430;-50
2021/10/25 03:50:19;;;;;;;5.67;5.10;;;;;;;;;;4993463;28;20416;-49
2021/10/25 03:55:29;;;;;;;4.40;4.00;;;;;;;;;;4993012;28;20405;-49
2021/10/25 04:28:02;;;;;;;6.60;4.63;;;;;;;;;;4992714;28;20458;-51
2021/10/25 04:30:31;;;;;;;7.73;5.40;;;;;;;;;;4992595;28;20401;-48
2021/10/25 04:32:57;;;;;;;6.20;4.80;;;;;;;;;;4992236;28;20428;-50
2021/10/25 04:35:23;;;;;;;8.43;5.43;;;;;;;;;;4992435;28;20449;-50
2021/10/25 04:37:49;;;;;;;6.40;5.13;;;;;;;;;;4992612;28;20406;-50
2021/10/25 04:40:15;;;;;;;5.10;4.60;;;;;;;;;;4991473;28;20405;-50
2021/10/25 04:42:41;;;;;;;7.67;5.07;;;;;;;;;;4992185;28;20495;-50
2021/10/25 04:45:08;;;;;;;7.13;5.40;;;;;;;;;;4992465;28;20840;-50
2021/10/25 04:47:34;;;;;;;5.30;4.80;;;;;;;;;;4992342;28;20420;-50
2021/10/25 04:50:00;;;;;;;8.73;5.17;;;;;;;;;;4991234;28;20404;-50
2021/10/25 04:52:29;;;;;;;6.20;5.07;;;;;;;;;;4991985;28;20540;-50
2021/10/25 04:54:55;;;;;;;6.13;4.47;;;;;;;;;;4992319;28;20765;-50
2021/10/25 04:57:21;;;;;;;7.80;5.00;;;;;;;;;;4992252;28;20459;-51
2021/10/25 04:59:47;;;;;;;7.90;5.57;;;;;;;;;;4990896;28;20428;-50
2021/10/25 05:02:14;;;;;;;8.37;5.43;;;;;;;;;;4991969;28;20456;-50
2021/10/25 05:04:40;;;;;;;6.60;5.10;;;;;;;;;;4992260;28;20472;-51
2021/10/25 05:07:06;;;;;;;8.77;5.10;;;;;;;;;;4992573;28;20495;-49
2021/10/25 05:09:33;;;;;;;6.60;5.20;;;;;;;;;;4992055;28;20522;-51
2021/10/25 05:11:59;;;;;;;6.73;5.40;;;;;;;;;;4990624;28;20428;-49
2021/10/25 05:14:25;;;;;;;7.97;5.47;;;;;;;;;;4992140;28;20417;-49
2021/10/25 05:16:51;;;;;;;7.63;4.83;;;;;;;;;;4992101;28;21141;-51
2021/10/25 05:19:16;;;;;;;5.53;4.97;;;;;;;;;;4992166;28;20405;-51
2021/10/25 05:21:43;;;;;;;5.97;5.00;;;;;;;;;;4991841;28;20484;-50
2021/10/25 05:24:09;;;;;;;8.80;5.03;;;;;;;;;;4991897;28;20420;-51
2021/10/25 05:26:35;;;;;;;7.30;5.50;;;;;;;;;;4993520;28;20418;-51
2021/10/25 05:29:01;;;;;;;5.57;5.00;;;;;;;;;;4995809;28;20812;-50
2021/10/25 05:31:27;;;;;;;4.83;4.33;;;;;;;;;;4995737;28;20415;-50
2021/10/25 05:33:53;;;;;;;5.57;5.07;;;;;;;;;;4994193;28;20436;-52
2021/10/25 05:36:19;;;;;;;5.40;4.90;;;;;;;;;;4995464;28;20503;-50
2021/10/25 05:38:46;;;;;;;5.80;5.20;;;;;;;;;;4995581;28;20995;-51
2021/10/25 05:41:13;;;;;;;5.50;4.60;;;;;;;;;;4995543;28;20412;-50
2021/10/25 05:43:40;;;;;;;11.50;4.77;;;;;;;;;;4995233;28;20487;-50
2021/10/25 05:46:06;;;;;;;5.97;4.93;;;;;;;;;;4995512;28;20816;-50
2021/10/25 05:48:32;;;;;;;5.87;4.90;;;;;;;;;;4995382;28;20477;-51
2021/10/25 05:51:00;;;;;;;4.73;4.33;;;;;;;;;;4995289;28;20956;-50
2021/10/25 05:53:26;;;;;;;7.50;5.30;;;;;;;;;;4995067;28;20894;-50
2021/10/25 05:55:53;;;;;;;5.53;4.60;;;;;;;;;;4995205;28;20463;-50
2021/10/25 05:58:21;;;;;;;6.37;4.50;;;;;;;;;;4995175;28;20407;-51
2021/10/25 06:00:53;;;;;;;8.60;4.73;;;;;;;;;;4995161;28;20459;-50
2021/10/25 06:03:23;;;;;;;7.60;4.50;;;;;;;;;;4994882;28;20409;-51
2021/10/25 06:05:49;;;;;;;4.53;4.20;;;;;;;;;;4995053;28;20777;-50
2021/10/25 06:08:15;;;;;;;5.67;4.90;;;;;;;;;;4995016;28;20421;-50
2021/10/25 06:10:42;;;;;;;4.57;4.17;;;;;;;;;;4995044;28;20414;-50
2021/10/25 06:13:09;;;;;;;5.30;4.73;;;;;;;;;;4994755;28;20437;-50
2021/10/25 06:15:39;;;;;;;6.00;4.50;;;;;;;;;;4994815;28;20563;-50
2021/10/25 06:18:08;;;;;;;7.23;5.10;;;;;;;;;;4993496;28;20404;-50
2021/10/25 06:20:35;;;;;;;6.30;5.20;;;;;;;;;;4994797;28;20406;-50
2021/10/25 06:23:06;;;;;;;9.33;5.60;;;;;;;;;;4994176;28;20523;-50
2021/10/25 06:25:32;;;;;;;5.50;4.50;;;;;;;;;;4994649;28;20873;-50
2021/10/25 06:27:58;;;;;;;8.07;5.80;;;;;;;;;;4993264;28;20428;-50
2021/10/25 06:30:24;;;;;;;7.00;5.43;;;;;;;;;;4994537;28;20423;-50
2021/10/25 06:32:51;;;;;;;10.00;5.60;;;;;;;;;;4994354;28;20502;-50
2021/10/25 06:35:23;;;;;;;6.30;5.03;;;;;;;;;;4993297;28;20429;-50
2021/10/25 06:37:50;;;;;;;9.63;5.37;;;;;;;;;;4993952;28;20400;-49
2021/10/25 06:40:17;;;;;;;7.03;5.20;;;;;;;;;;4994510;28;20397;-50
2021/10/25 06:42:44;;;;;;;8.00;5.30;;;;;;;;;;4992716;28;20901;-50
2021/10/25 06:45:14;;;;;;;6.47;5.63;;;;;;;;;;4994350;28;20408;-50
2021/10/25 06:47:40;;;;;;;10.60;5.60;;;;;;;;;;4994423;28;20402;-50
2021/10/25 06:50:06;;;;;;;9.30;5.37;;;;;;;;;;4994248;28;20776;-50
2021/10/25 06:52:33;;;;;;;12.30;5.80;;;;;;;;;;4993915;28;20424;-49
2021/10/25 06:54:59;;;;;;;12.50;5.90;;;;;;;;;;4994607;28;20468;-50
2021/10/25 06:57:25;;;;;;;7.17;5.80;;;;;;;;;;4992709;28;20504;-50
2021/10/25 06:59:52;;;;;;;7.77;5.37;;;;;;;;;;4992834;28;20552;-50
2021/10/25 07:02:19;;;;;;;7.80;5.67;;;;;;;;;;4993719;28;20428;-50
2021/10/25 07:04:47;;;;;;;6.57;4.90;;;;;;;;;;4994075;28;20405;-50
2021/10/25 07:07:13;;;;;;;12.90;5.30;;;;;;;;;;4993873;28;20444;-50
2021/10/25 07:09:39;;;;;;;8.60;4.83;;;;;;;;;;4993954;28;20785;-50
2021/10/25 07:12:06;;;;;;;6.00;5.07;;;;;;;;;;4993560;28;20801;-50
2021/10/25 07:14:36;;;;;;;7.50;4.87;;;;;;;;;;4993893;28;20416;-50
2021/10/25 07:17:18;;;;;;;6.63;5.27;;;;;;;;;;4993692;28;20466;-50
2021/10/25 07:22:34;;;;;;;5.40;4.63;;;;;;;;;;4993336;28;20993;-49
2021/10/25 08:08:38;;;;;;;4.93;3.90;;;;;;;;;;4992947;28;20438;-50
2021/10/25 08:11:03;;;;;;;4.77;4.30;;;;;;;;;;4991629;28;20419;-50
2021/10/25 08:13:33;;;;;;;6.90;3.83;;;;;;;;;;4992640;28;20938;-51
2021/10/25 08:16:09;;;;;;;7.93;4.00;;;;;;;;;;4992771;28;20451;-51
2021/10/25 08:18:51;;;;;;;6.90;3.60;;;;;;;;;;4992677;28;20902;-50
2021/10/25 08:21:21;;;;;;;6.10;3.97;;;;;;;;;;4992645;28;20895;-50
2021/10/25 08:23:48;;;;;;;3.93;3.53;;;;;;;;;;4991038;28;20455;-51
2021/10/25 08:26:14;;;;;;;5.60;3.70;;;;;;;;;;4992713;28;20781;-52
2021/10/25 08:28:40;;;;;;;5.80;3.60;;;;;;;;;;4992905;28;20413;-50
2021/10/25 08:31:08;;;;;;;3.50;3.20;;;;;;;;;;4995019;28;20443;-50
2021/10/25 08:36:20;;;;;;;4.07;3.67;;;;;;;;;;4992675;28;20475;-51
2021/10/25 08:41:32;;;;;;;4.27;3.87;;;;;;;;;;4992400;28;20792;-50
2021/10/25 08:43:59;;;;;;;4.77;3.37;;;;;;;;;;4992099;28;20421;-50
2021/10/25 08:46:27;;;;;;;4.70;3.80;;;;;;;;;;4992293;28;20490;-51
2021/10/25 08:48:54;;;;;;;6.43;3.93;;;;;;;;;;4992419;28;20768;-50
2021/10/25 08:51:20;;;;;;;3.47;3.13;;;;;;;;;;4992280;28;20409;-52
2021/10/25 08:53:46;;;;;;;3.83;3.53;;;;;;;;;;4992141;28;20444;-51
2021/10/25 08:56:17;;;;;;;4.63;3.80;;;;;;;;;;4992178;28;20459;-50
2021/10/25 08:58:45;;;;;;;3.80;3.50;;;;;;;;;;4992250;28;20416;-50
2021/10/25 09:01:11;;;;;;;6.10;4.37;;;;;;;;;;4994636;28;20838;-52
2021/10/25 09:03:39;;;;;;;6.20;2.90;;;;;;;;;;4995985;28;20462;-51
2021/10/25 09:06:05;;;;;;;6.97;3.20;;;;;;;;;;4996167;28;20413;-51
2021/10/25 09:08:33;;;;;;;4.47;3.07;;;;;;;;;;4996297;28;20567;-52
2021/10/25 09:10:59;;;;;;;3.83;3.23;;;;;;;;;;4994850;28;20527;-52
2021/10/25 09:13:27;;;;;;;3.30;3.00;;;;;;;;;;4995858;28;20432;-53
2021/10/25 09:15:54;;;;;;;3.77;3.50;;;;;;;;;;4995958;28;20457;-53
2021/10/25 09:18:25;;;;;;;5.57;4.10;;;;;;;;;;4996000;28;20411;-52
2021/10/25 09:20:54;;;;;;;3.90;3.13;;;;;;;;;;4995868;28;20415;-52
2021/10/25 09:23:24;;;;;;;3.20;2.90;;;;;;;;;;4995373;28;20453;-51
2021/10/25 09:25:51;;;;;;;3.47;3.13;;;;;;;;;;4995892;28;20815;-51
2021/10/25 09:28:20;;;;;;;3.07;2.87;;;;;;;;;;4995783;28;20414;-53
2021/10/25 09:30:47;;;;;;;3.10;2.80;;;;;;;;;;4995851;28;20494;-53
2021/10/25 09:33:20;;;;;;;5.40;2.83;;;;;;;;;;4995415;28;20431;-53
2021/10/25 09:35:49;;;;;;;8.30;3.97;;;;;;;;;;4995566;28;20455;-52
2021/10/25 09:38:29;;;;;;;5.80;2.97;;;;;;;;;;4995571;28;20396;-51
2021/10/25 09:46:32;;;;;;;3.00;2.80;;;;;;;;;;4995590;28;20778;-50
2021/10/25 09:49:04;;;;;;;3.60;3.23;;;;;;;;;;4995516;28;20400;-51
2021/10/25 09:51:30;;;;;;;6.80;2.83;;;;;;;;;;4995500;28;20408;-52
2021/10/25 09:53:58;;;;;;;5.00;2.83;;;;;;;;;;4995173;28;20426;-53
2021/10/25 09:56:32;;;;;;;3.87;2.53;;;;;;;;;;4995174;28;21125;-52
2021/10/25 09:59:30;;;;;;;3.33;2.90;;;;;;;;;;4995841;28;20895;-53
2021/10/25 10:01:56;;;;;;;2.87;2.50;;;;;;;;;;4995046;28;20400;-53
2021/10/25 10:04:22;;;;;;;3.10;2.70;;;;;;;;;;4995186;28;20407;-55
2021/10/25 10:06:48;;;;;;;3.43;2.10;;;;;;;;;;4990903;28;20435;-53
2021/10/25 10:09:15;;;;;;;7.77;5.67;;;;;;;;;;4995019;28;20414;-54
2021/10/25 10:11:41;;;;;;;6.40;5.50;;;;;;;;;;4993995;28;20405;-53
2021/10/25 10:14:07;;;;;;;8.57;5.93;;;;;;;;;;4994904;28;20440;-54
2021/10/25 10:16:36;;;;;;;6.17;4.97;;;;;;;;;;4994879;28;20557;-54
2021/10/25 10:19:03;;;;;;;4.37;2.80;;;;;;;;;;4994591;28;20610;-52
2021/10/25 10:21:29;;;;;;;4.17;2.60;;;;;;;;;;4994070;28;20401;-54
2021/10/25 10:24:04;;;;;;;3.50;2.63;;;;;;;;;;4994210;28;20455;-54
2021/10/25 10:26:35;;;;;;;4.30;2.57;;;;;;;;;;4995481;28;20400;-52
2021/10/25 10:29:08;;;;;;;2.70;2.50;;;;;;;;;;4994674;28;20483;-52
2021/10/25 10:31:35;;;;;;;3.43;2.10;;;;;;;;;;4994633;28;20888;-52
2021/10/25 10:34:09;;;;;;;4.43;2.30;;;;;;;;;;4994067;28;20424;-51
2021/10/25 10:36:35;;;;;;;2.70;2.30;;;;;;;;;;4994430;28;20482;-52
2021/10/25 10:39:06;;;;;;;3.20;2.67;;;;;;;;;;4994423;28;20404;-53
2021/10/25 10:41:58;;;;;;;2.50;2.30;;;;;;;;;;4994369;28;20491;-52
2021/10/25 10:44:29;;;;;;;2.93;2.73;;;;;;;;;;4991721;28;20926;-51
2021/10/25 10:47:01;;;;;;;3.50;2.40;;;;;;;;;;4993527;28;20423;-51
2021/10/25 10:49:30;;;;;;;4.00;2.37;;;;;;;;;;4994256;28;20397;-53
2021/10/25 10:52:04;;;;;;;2.60;2.20;;;;;;;;;;4993930;28;20409;-52
2021/10/25 10:54:51;;;;;;;2.50;2.30;;;;;;;;;;4994161;28;20412;-52
2021/10/25 11:00:01;;;;;;;2.57;2.37;;;;;;;;;;4994196;28;20470;-51
2021/10/25 11:02:27;;;;;;;2.70;2.27;;;;;;;;;;5000996;28;20491;-53
2021/10/25 11:05:04;;;;;;;3.00;2.50;;;;;;;;;;5013658;28;20402;-51
2021/10/25 11:07:30;;;;;;;8.13;2.30;;;;;;;;;;5013469;28;20505;-51
2021/10/25 11:10:06;;;;;;;5.60;3.93;;;;;;;;;;5013816;28;20420;-53
2021/10/25 11:12:35;;;;;;;3.23;2.10;;;;;;;;;;5013081;28;20393;-53
2021/10/25 11:15:03;;;;;;;4.00;2.57;;;;;;;;;;5013324;28;20403;-53
2021/10/25 11:17:31;;;;;;;3.13;2.50;;;;;;;;;;5013117;28;20508;-52
2021/10/25 11:19:57;;;;;;;2.90;2.70;;;;;;;;;;5013240;28;20476;-52
2021/10/25 11:22:24;;;;;;;3.43;2.93;;;;;;;;;;5012996;28;20947;-52
2021/10/25 11:24:51;;;;;;;2.47;2.27;;;;;;;;;;5012989;28;20410;-52
2021/10/25 11:27:23;;;;;;;2.50;2.30;;;;;;;;;;5012453;28;20445;-51
2021/10/25 11:29:51;;;;;;;5.07;3.00;;;;;;;;;;5010251;28;20500;-51
2021/10/25 11:32:17;;;;;;;3.47;2.23;;;;;;;;;;4990434;28;20401;-52
2021/10/25 11:34:46;;;;;;;2.77;2.57;;;;;;;;;;4991805;28;20382;-52
2021/10/25 11:37:19;;;;;;;3.50;2.60;;;;;;;;;;4991576;28;20822;-51
2021/10/25 11:39:47;;;;;;;3.13;2.83;;;;;;;;;;4993074;28;20398;-52
2021/10/25 11:42:13;;;;;;;3.37;3.07;;;;;;;;;;4993056;28;21036;-50
2021/10/25 11:44:41;;;;;;;4.43;3.10;;;;;;;;;;4993309;28;20459;-51
2021/10/25 11:47:17;;;;;;;3.77;2.60;;;;;;;;;;4992938;28;20472;-52
2021/10/25 11:49:43;;;;;;;2.60;2.40;;;;;;;;;;4993259;28;20378;-52
2021/10/25 11:52:09;;;;;;;3.80;2.77;;;;;;;;;;4993015;28;20426;-52
2021/10/25 11:54:48;;;;;;;2.67;2.47;;;;;;;;;;4993141;28;20375;-52
2021/10/25 11:57:15;;;;;;;3.53;2.90;;;;;;;;;;4992916;28;20452;-53
2021/10/25 11:59:41;;;;;;;3.50;2.73;;;;;;;;;;4992917;28;20796;-52
2021/10/25 12:02:10;;;;;;;2.27;2.07;;;;;;;;;;4992509;28;20447;-53
2021/10/25 12:04:46;;;;;;;3.60;2.40;;;;;;;;;;4992950;28;20386;-52
2021/10/25 12:07:13;;;;;;;3.30;2.27;;;;;;;;;;4992883;28;20378;-52
2021/10/25 12:09:39;;;;;;;2.80;2.20;;;;;;;;;;4992870;28;20801;-53
2021/10/25 12:12:09;;;;;;;8.13;2.70;;;;;;;;;;4992389;28;20472;-53
2021/10/25 12:14:38;;;;;;;3.30;3.00;;;;;;;;;;4992766;28;20405;-52
2021/10/25 12:17:04;;;;;;;2.33;2.13;;;;;;;;;;4992630;28;20446;-51
2021/10/25 12:19:30;;;;;;;3.63;2.50;;;;;;;;;;4992657;28;20412;-51
2021/10/25 12:22:07;;;;;;;4.80;2.27;;;;;;;;;;4992237;28;20402;-53
2021/10/25 12:24:40;;;;;;;2.60;2.40;;;;;;;;;;4992496;28;20535;-50
2021/10/25 12:27:08;;;;;;;4.77;2.80;;;;;;;;;;4992546;28;20418;-52
2021/10/25 12:29:34;;;;;;;4.70;2.83;;;;;;;;;;4992218;28;20411;-52
2021/10/25 12:32:08;;;;;;;3.40;2.80;;;;;;;;;;4992205;28;20408;-52
2021/10/25 12:34:46;;;;;;;3.87;2.40;;;;;;;;;;4972714;28;20411;-52
2021/10/25 12:37:18;;;;;;;4.80;3.40;;;;;;;;;;4972834;28;20462;-51
2021/10/25 12:39:44;;;;;;;4.40;2.50;;;;;;;;;;4973132;28;20405;-50
2021/10/25 12:42:10;;;;;;;3.67;2.50;;;;;;;;;;4972766;28;20419;-51
2021/10/25 12:44:41;;;;;;;4.10;2.77;;;;;;;;;;4973345;28;20543;-52
2021/10/25 12:47:16;;;;;;;2.27;2.07;;;;;;;;;;4972905;28;20408;-51
2021/10/25 12:49:53;;;;;;;3.30;2.53;;;;;;;;;;4972881;28;20433;-52
2021/10/25 12:52:19;;;;;;;2.70;2.30;;;;;;;;;;4972648;28;20401;-52
2021/10/25 12:54:46;;;;;;;3.47;2.77;;;;;;;;;;4972907;28;20418;-52
2021/10/25 12:57:18;;;;;;;2.23;2.03;;;;;;;;;;4972726;28;20457;-51
2021/10/25 12:59:44;;;;;;;2.83;2.50;;;;;;;;;;4972910;28;20386;-51
2021/10/25 13:02:10;;;;;;;3.77;2.60;;;;;;;;;;4972196;28;20429;-51
2021/10/25 13:04:38;;;;;;;2.30;2.10;;;;;;;;;;4972859;28;20412;-52
2021/10/25 13:07:14;;;;;;;5.10;2.27;;;;;;;;;;4972712;28;20413;-51
2021/10/25 13:09:46;;;;;;;5.77;2.40;;;;;;;;;;4972792;28;20886;-52
2021/10/25 13:12:12;;;;;;;2.37;2.20;;;;;;;;;;4972401;28;20422;-50
2021/10/25 13:14:38;;;;;;;3.07;2.53;;;;;;;;;;4972679;28;20405;-50
2021/10/25 13:17:07;;;;;;;3.10;2.80;;;;;;;;;;4972543;28;20605;-51
2021/10/25 13:19:33;;;;;;;3.60;2.80;;;;;;;;;;4972700;28;20754;-52
2021/10/25 13:21:59;;;;;;;4.43;2.30;;;;;;;;;;4972253;28;20916;-52
2021/10/25 13:24:25;;;;;;;3.00;2.50;;;;;;;;;;4972590;28;20407;-52
2021/10/25 13:26:51;;;;;;;3.50;3.17;;;;;;;;;;4972566;28;20426;-52
2021/10/25 13:29:17;;;;;;;2.80;2.60;;;;;;;;;;4972641;28;20409;-52
2021/10/25 13:31:43;;;;;;;4.73;2.73;;;;;;;;;;4972653;28;20390;-51
2021/10/25 13:34:09;;;;;;;4.13;2.50;;;;;;;;;;4971766;28;20753;-52
2021/10/25 13:36:35;;;;;;;3.70;2.20;;;;;;;;;;4972455;28;20457;-52
2021/10/25 13:39:01;;;;;;;5.90;2.40;;;;;;;;;;4972765;28;20777;-51
2021/10/25 13:41:27;;;;;;;3.57;2.83;;;;;;;;;;4972467;28;20405;-51
2021/10/25 13:43:55;;;;;;;2.93;2.63;;;;;;;;;;4972143;28;20423;-51
2021/10/25 13:46:21;;;;;;;3.90;2.80;;;;;;;;;;4973275;28;20438;-51
2021/10/25 13:48:47;;;;;;;4.43;2.33;;;;;;;;;;4976109;28;20835;-52
2021/10/25 13:51:13;;;;;;;2.77;2.57;;;;;;;;;;4976021;28;20411;-50
2021/10/25 13:53:39;;;;;;;3.70;2.70;;;;;;;;;;4975656;28;20797;-51
2021/10/25 13:56:07;;;;;;;8.50;2.83;;;;;;;;;;4975933;28;20739;-52
2021/10/25 13:58:33;;;;;;;3.07;2.77;;;;;;;;;;4975633;28;20902;-51
2021/10/25 14:00:59;;;;;;;4.47;2.70;;;;;;;;;;4975802;28;21013;-50
2021/10/25 14:03:26;;;;;;;3.40;2.80;;;;;;;;;;4975556;28;20427;-51
2021/10/25 14:05:56;;;;;;;2.60;2.20;;;;;;;;;;4975625;28;20414;-50
2021/10/25 14:08:22;;;;;;;4.33;3.47;;;;;;;;;;4975653;28;20384;-53
2021/10/25 14:10:51;;;;;;;3.47;2.43;;;;;;;;;;4976113;28;20386;-52
2021/10/25 14:18:38;;;;;;;4.33;2.67;;;;;;;;;;4975507;28;20767;-51
2021/10/25 14:21:04;;;;;;;2.70;2.50;;;;;;;;;;4975503;28;20379;-53
2021/10/25 14:23:31;;;;;;;3.00;2.67;;;;;;;;;;4974947;28;20420;-51
2021/10/25 14:25:57;;;;;;;3.13;2.70;;;;;;;;;;4975384;28;20508;-52
2021/10/25 14:28:23;;;;;;;3.37;3.10;;;;;;;;;;4975229;28;20918;-52
2021/10/25 14:30:49;;;;;;;5.70;2.80;;;;;;;;;;4975279;28;20483;-52
2021/10/25 14:33:15;;;;;;;4.93;2.90;;;;;;;;;;4975003;28;20438;-52
2021/10/25 14:35:41;;;;;;;4.77;2.77;;;;;;;;;;4975217;28;20410;-52
2021/10/25 14:38:11;;;;;;;4.23;2.80;;;;;;;;;;4975111;28;20406;-52
2021/10/25 14:41:02;;;;;;;4.07;3.33;;;;;;;;;;4975186;28;20777;-52
2021/10/25 14:43:34;;;;;;;3.40;3.13;;;;;;;;;;4975095;28;20422;-52
2021/10/25 14:46:05;;;;;;;7.00;3.87;;;;;;;;;;4975047;28;20397;-52
2021/10/25 14:48:54;;;;;;;3.43;3.13;;;;;;;;;;4974895;28;20487;-52
2021/10/25 14:54:17;;;;;;;5.47;3.40;;;;;;;;;;4974769;28;20418;-52
2021/10/25 14:56:43;;;;;;;3.67;3.10;;;;;;;;;;4974533;28;20975;-52
2021/10/25 14:59:09;;;;;;;8.13;3.30;;;;;;;;;;4974266;28;20372;-52
2021/10/25 15:01:35;;;;;;;3.70;3.40;;;;;;;;;;4974557;28;20429;-52
2021/10/25 15:04:03;;;;;;;5.80;3.40;;;;;;;;;;4974386;28;20520;-50
2021/10/25 15:06:33;;;;;;;4.63;3.70;;;;;;;;;;4974622;28;20898;-51
2021/10/25 15:09:00;;;;;;;6.37;3.53;;;;;;;;;;4974652;28;20385;-52
2021/10/25 15:11:26;;;;;;;4.43;3.97;;;;;;;;;;4974318;28;20409;-51
2021/10/25 15:13:52;;;;;;;3.83;3.43;;;;;;;;;;4974123;28;20923;-52
2021/10/25 15:16:18;;;;;;;4.73;3.47;;;;;;;;;;4974209;28;20474;-52
2021/10/25 15:18:44;;;;;;;11.83;4.20;;;;;;;;;;4985738;28;20812;-51
2021/10/25 15:21:13;;;;;;;4.50;4.10;;;;;;;;;;5013333;28;20429;-50
2021/10/25 15:23:39;;;;;;;6.27;4.30;;;;;;;;;;5012829;28;20422;-51
2021/10/25 15:26:05;;;;;;;5.57;4.00;;;;;;;;;;5013153;28;20886;-50
2021/10/25 15:28:31;;;;;;;7.53;4.70;;;;;;;;;;5013135;28;20429;-50
2021/10/25 15:30:57;;;;;;;12.00;5.63;;;;;;;;;;5013127;28;20854;-50
2021/10/25 15:33:24;;;;;;;5.80;4.40;;;;;;;;;;5012784;28;20533;-49
2021/10/25 15:35:53;;;;;;;4.30;3.87;;;;;;;;;;5013024;28;20434;-51
2021/10/25 15:38:20;;;;;;;9.67;4.70;;;;;;;;;;5012958;28;20801;-52
2021/10/25 15:40:46;;;;;;;5.83;4.80;;;;;;;;;;5012947;28;20395;-52
2021/10/25 15:43:12;;;;;;;4.80;4.07;;;;;;;;;;5012688;28;20398;-52
2021/10/25 15:45:38;;;;;;;6.63;4.60;;;;;;;;;;5012851;28;20370;-52
2021/10/25 15:48:04;;;;;;;7.70;4.63;;;;;;;;;;5012807;28;20375;-52
2021/10/25 15:50:30;;;;;;;4.60;4.20;;;;;;;;;;5012868;28;20410;-50
2021/10/25 15:53:01;;;;;;;7.97;5.00;;;;;;;;;;5012456;28;20397;-51
2021/10/25 15:55:27;;;;;;;4.83;4.20;;;;;;;;;;5012614;28;20918;-52
2021/10/25 15:57:56;;;;;;;6.73;4.17;;;;;;;;;;5012612;28;20437;-50
2021/10/25 16:00:23;;;;;;;4.53;3.80;;;;;;;;;;5012554;28;20374;-51
2021/10/25 16:02:49;;;;;;;6.13;4.20;;;;;;;;;;5012285;28;20428;-53
2021/10/25 16:05:16;;;;;;;6.73;4.37;;;;;;;;;;5012632;28;20403;-51
2021/10/25 16:07:42;;;;;;;8.20;4.50;;;;;;;;;;5012496;28;20793;-50
2021/10/25 16:10:10;;;;;;;3.80;3.40;;;;;;;;;;5011728;28;20378;-52
2021/10/25 16:12:36;;;;;;;4.90;4.23;;;;;;;;;;5012214;28;20413;-52
2021/10/25 16:15:03;;;;;;;5.70;3.80;;;;;;;;;;5012457;28;20374;-52
2021/10/25 16:17:29;;;;;;;6.23;4.10;;;;;;;;;;5012356;28;20440;-52
2021/10/25 16:19:57;;;;;;;4.83;4.33;;;;;;;;;;5012324;28;20461;-52
2021/10/25 16:22:24;;;;;;;4.83;4.00;;;;;;;;;;5011961;28;20409;-52
2021/10/25 16:24:50;;;;;;;6.77;3.70;;;;;;;;;;5012302;28;20392;-52
2021/10/25 16:27:16;;;;;;;4.67;3.50;;;;;;;;;;5013095;28;20391;-53
2021/10/25 16:29:42;;;;;;;4.63;4.00;;;;;;;;;;5012280;28;20418;-53
2021/10/25 16:32:09;;;;;;;7.57;4.17;;;;;;;;;;5011974;28;20948;-52